Saticoy, California
Current Conditions -  °F | °C
As of 9:51 AM on Thursday 29 Jan 2015 (Local Time) from KOXR Reporting Station
Clear Clear  
Wind Chill: 20°   Ceiling: Unl
Heat Index: 20°   Visibility: 10mi
Dew Point:   Wind: 3mph
Humidity: 49%   Direction: 240°WSW
Pressure: 30.06"   Gusts: NA
Location:  34.287°N, 119.172°W
Report Text: KOXR 291751Z 24003KT 10SM CLR 20/09 A3006 RMK AO2 SLP179 T02000089 10200 20144 51009
Loading
Personal Weather Stations






























Interactive Weather Map New forecast layout! Learn more

10-Day Weather Forecast

Advertisements
Track Severe Weather on mobile